createdAt,value
2018-09-16T00:01:47.852Z,2.40
2018-09-16T00:04:15.288Z,2.30
2018-09-16T00:06:42.843Z,2.30
2018-09-16T00:09:11.080Z,2.20
2018-09-16T00:11:38.887Z,2.30
2018-09-16T00:14:06.301Z,2.30
2018-09-16T00:16:33.770Z,2.30
2018-09-16T00:19:01.181Z,2.20
2018-09-16T00:21:28.625Z,2.20
2018-09-16T00:23:56.029Z,2.20
2018-09-16T00:26:23.433Z,2.20
2018-09-16T00:28:50.868Z,2.00
2018-09-16T00:31:18.313Z,1.90
2018-09-16T00:33:45.748Z,1.90
2018-09-16T00:36:13.172Z,1.90
2018-09-16T00:38:40.558Z,1.90
2018-09-16T00:41:08.006Z,1.90
2018-09-16T00:43:35.646Z,2.00
2018-09-16T00:46:03.089Z,2.00
2018-09-16T00:48:30.482Z,2.10
2018-09-16T00:50:57.888Z,2.10
2018-09-16T00:53:25.293Z,2.00
2018-09-16T00:55:52.800Z,2.10
2018-09-16T00:58:20.664Z,2.10
2018-09-16T01:00:54.597Z,2.10
2018-09-16T01:03:22.266Z,2.10
2018-09-16T01:05:55.531Z,2.20
2018-09-16T01:08:23.009Z,2.20
2018-09-16T01:10:50.584Z,2.20
2018-09-16T01:13:17.979Z,2.20
2018-09-16T01:15:45.796Z,2.20
2018-09-16T01:18:13.220Z,2.20
2018-09-16T01:20:40.649Z,2.20
2018-09-16T01:23:08.109Z,2.10
2018-09-16T01:25:35.532Z,2.10
2018-09-16T01:28:02.938Z,2.00
2018-09-16T01:30:30.384Z,2.00
2018-09-16T01:32:57.765Z,2.00
2018-09-16T01:35:25.192Z,1.90
2018-09-16T01:37:58.386Z,1.90
2018-09-16T01:40:25.781Z,1.90
2018-09-16T01:45:26.146Z,1.90
2018-09-16T01:47:53.568Z,1.90
2018-09-16T01:50:21.012Z,2.00
2018-09-16T01:52:48.479Z,2.00
2018-09-16T01:55:16.512Z,1.90
2018-09-16T01:57:43.913Z,1.80
2018-09-16T02:00:11.390Z,1.80
2018-09-16T02:02:38.862Z,1.70
2018-09-16T02:05:06.285Z,1.70
2018-09-16T02:07:33.671Z,1.60
2018-09-16T02:10:01.128Z,1.50
2018-09-16T02:12:28.525Z,1.40
2018-09-16T02:14:55.933Z,1.30
2018-09-16T02:17:23.618Z,1.20
2018-09-16T02:19:51.042Z,1.20
2018-09-16T02:22:18.421Z,1.20
2018-09-16T02:24:45.891Z,1.20
2018-09-16T02:27:13.289Z,1.10
2018-09-16T02:29:40.741Z,1.00
2018-09-16T02:32:08.226Z,1.00
2018-09-16T02:34:35.636Z,0.90
2018-09-16T02:37:03.122Z,0.90
2018-09-16T02:39:30.576Z,0.80
2018-09-16T02:41:57.936Z,1.00
2018-09-16T02:44:25.433Z,1.00
2018-09-16T02:46:52.829Z,0.90
2018-09-16T02:49:20.213Z,0.80
2018-09-16T02:51:47.613Z,0.80
2018-09-16T02:54:15.153Z,0.70
2018-09-16T02:56:42.561Z,0.80
2018-09-16T02:59:09.978Z,0.80
2018-09-16T03:01:37.440Z,0.80
2018-09-16T03:04:04.953Z,0.80
2018-09-16T03:06:33.162Z,0.80
2018-09-16T03:09:01.369Z,0.80
2018-09-16T03:11:29.362Z,0.90
2018-09-16T03:13:56.746Z,0.90
2018-09-16T03:16:24.136Z,0.90
2018-09-16T03:18:51.676Z,0.90
2018-09-16T03:21:19.241Z,0.90
2018-09-16T03:23:46.625Z,1.00
2018-09-16T03:26:14.024Z,0.90
2018-09-16T03:28:41.421Z,0.90
2018-09-16T03:31:08.857Z,0.90
2018-09-16T03:33:36.252Z,1.00
2018-09-16T03:36:03.773Z,1.00
2018-09-16T03:38:31.210Z,1.00
2018-09-16T03:40:58.589Z,1.00
2018-09-16T03:43:26.024Z,1.00
2018-09-16T03:45:53.448Z,1.00
2018-09-16T03:48:20.885Z,0.90
2018-09-16T03:50:48.615Z,0.90
2018-09-16T03:53:15.973Z,0.90
2018-09-16T03:55:43.369Z,0.90
2018-09-16T03:58:10.773Z,0.90
2018-09-16T04:00:38.182Z,0.80
2018-09-16T04:03:05.732Z,0.90
2018-09-16T04:05:33.144Z,1.00
2018-09-16T04:08:00.577Z,0.90
2018-09-16T04:10:27.948Z,0.90
2018-09-16T04:12:55.354Z,0.80
2018-09-16T04:15:22.772Z,0.80
2018-09-16T04:17:50.168Z,0.80
2018-09-16T04:20:17.622Z,0.80
2018-09-16T04:22:45.057Z,0.90
2018-09-16T04:25:12.469Z,0.90
2018-09-16T04:27:39.883Z,0.90
2018-09-16T04:30:07.455Z,0.90
2018-09-16T04:32:35.265Z,0.90
2018-09-16T04:35:02.705Z,1.00
2018-09-16T04:37:30.098Z,1.20
2018-09-16T04:39:57.559Z,1.20
2018-09-16T04:42:24.952Z,1.00
2018-09-16T04:44:52.394Z,1.00
2018-09-16T04:47:19.842Z,1.00
2018-09-16T04:49:47.271Z,0.90
2018-09-16T04:52:14.638Z,1.00
2018-09-16T04:54:42.113Z,1.20
2018-09-16T04:57:09.513Z,1.40
2018-09-16T04:59:36.949Z,1.70
2018-09-16T05:02:04.464Z,1.80
2018-09-16T05:04:31.910Z,1.90
2018-09-16T05:06:59.313Z,2.00
2018-09-16T05:09:26.725Z,2.00
2018-09-16T05:11:54.098Z,1.90
2018-09-16T05:14:21.598Z,1.90
2018-09-16T05:16:49.101Z,2.00
2018-09-16T05:19:16.492Z,2.00
2018-09-16T05:21:43.886Z,2.00
2018-09-16T05:24:11.314Z,2.00
2018-09-16T05:26:38.761Z,2.00
2018-09-16T05:29:06.144Z,2.00
2018-09-16T05:31:33.649Z,2.00
2018-09-16T05:34:01.189Z,2.10
2018-09-16T05:36:28.571Z,2.10
2018-09-16T05:38:56.020Z,2.20
2018-09-16T05:41:23.418Z,2.30
2018-09-16T05:43:50.812Z,2.20
2018-09-16T05:46:18.273Z,2.30
2018-09-16T05:48:45.903Z,2.30
2018-09-16T05:51:13.633Z,2.40
2018-09-16T05:53:41.048Z,2.50
2018-09-16T05:56:08.617Z,2.60
2018-09-16T05:58:36.061Z,2.70
2018-09-16T06:01:03.468Z,2.80
2018-09-16T06:03:30.908Z,2.90
2018-09-16T06:05:58.329Z,3.00
2018-09-16T06:08:25.744Z,3.10
2018-09-16T06:10:53.207Z,3.20
2018-09-16T06:13:20.666Z,3.30
2018-09-16T06:15:48.242Z,3.40
2018-09-16T06:18:15.699Z,3.60
2018-09-16T06:20:43.187Z,3.80
2018-09-16T06:23:10.765Z,3.90
2018-09-16T06:25:38.204Z,4.00
2018-09-16T06:28:05.882Z,4.30
2018-09-16T06:30:33.336Z,4.60
2018-09-16T06:33:00.820Z,4.80
2018-09-16T06:35:28.322Z,4.90
2018-09-16T06:37:55.748Z,5.10
2018-09-16T06:40:23.134Z,5.20
2018-09-16T06:42:50.768Z,5.40
2018-09-16T06:45:18.397Z,5.60
2018-09-16T06:47:45.818Z,5.90
2018-09-16T06:50:13.280Z,6.10
2018-09-16T06:52:40.741Z,6.30
2018-09-16T06:55:08.267Z,6.50
2018-09-16T06:57:36.133Z,6.70
2018-09-16T07:00:04.392Z,6.90
2018-09-16T07:02:32.130Z,7.20
2018-09-16T07:04:59.704Z,7.40
2018-09-16T07:07:27.667Z,7.70
2018-09-16T07:10:02.506Z,7.90
2018-09-16T07:12:30.240Z,8.10
2018-09-16T07:14:57.715Z,8.30
2018-09-16T07:17:25.496Z,8.50
2018-09-16T07:20:04.452Z,8.70
2018-09-16T07:22:32.032Z,8.80
2018-09-16T07:24:59.991Z,9.00
2018-09-16T07:27:27.510Z,9.10
2018-09-16T07:32:40.083Z,9.40
2018-09-16T07:35:07.851Z,9.50
2018-09-16T07:37:35.918Z,9.60
2018-09-16T07:40:03.650Z,9.70
2018-09-16T07:42:31.287Z,9.90
2018-09-16T07:44:59.448Z,10.00
2018-09-16T07:47:27.374Z,10.10
2018-09-16T07:49:55.330Z,10.10
2018-09-16T07:52:23.193Z,10.30
2018-09-16T07:54:51.353Z,10.40
2018-09-16T07:57:23.488Z,10.50
2018-09-16T07:59:51.989Z,10.60
2018-09-16T08:02:19.847Z,10.80
2018-09-16T08:04:48.700Z,10.90
2018-09-16T08:07:18.512Z,11.00
2018-09-16T08:12:51.130Z,11.30
2018-09-16T08:15:21.130Z,11.40
2018-09-16T08:17:58.954Z,11.50
2018-09-16T08:23:25.671Z,11.70
2018-09-16T08:25:56.163Z,11.80
2018-09-16T08:28:25.291Z,11.90
2018-09-16T08:30:59.856Z,12.00
2018-09-16T08:42:16.073Z,12.50
2018-09-16T08:48:25.829Z,12.90
2018-09-16T08:50:55.491Z,13.10
2018-09-16T08:56:26.991Z,13.40
2018-09-16T08:58:54.896Z,13.60
2018-09-16T09:01:23.605Z,13.50
2018-09-16T09:03:51.880Z,13.20
2018-09-16T09:06:20.304Z,13.10
2018-09-16T09:08:48.420Z,13.00
2018-09-16T09:11:16.738Z,12.90
2018-09-16T09:13:45.949Z,12.80
2018-09-16T09:16:15.670Z,12.80
2018-09-16T09:18:46.040Z,12.80
2018-09-16T09:21:16.015Z,12.90
2018-09-16T09:27:02.923Z,12.90
2018-09-16T09:29:33.173Z,13.00
2018-09-16T09:37:13.329Z,13.10
2018-09-16T09:39:44.579Z,13.10
2018-09-16T09:42:24.431Z,13.30
2018-09-16T09:45:10.107Z,13.50
2018-09-16T09:47:59.469Z,13.60
2018-09-16T09:50:30.234Z,13.80
2018-09-16T09:52:59.815Z,14.00
2018-09-16T09:55:28.505Z,14.20
2018-09-16T09:58:07.428Z,14.30
2018-09-16T10:00:43.076Z,14.40
2018-09-16T10:03:19.134Z,14.40
2018-09-16T10:05:50.484Z,14.20
2018-09-16T10:11:39.207Z,14.00
2018-09-16T10:14:11.974Z,14.00
2018-09-16T10:16:54.322Z,13.90
2018-09-16T10:56:07.796Z,14.10
2018-09-16T10:58:35.870Z,14.60
2018-09-16T11:01:04.011Z,14.60
2018-09-16T11:03:31.735Z,14.80
2018-09-16T11:06:01.572Z,14.80
2018-09-16T11:08:30.299Z,14.80
2018-09-16T11:10:58.780Z,14.80
2018-09-16T11:13:26.533Z,14.60
2018-09-16T11:15:53.963Z,14.50
2018-09-16T11:18:21.396Z,14.60
2018-09-16T11:20:48.893Z,14.90
2018-09-16T11:23:17.157Z,15.40
2018-09-16T11:25:50.764Z,15.70
2018-09-16T11:28:18.293Z,15.90
2018-09-16T11:30:46.055Z,15.90
2018-09-16T11:33:13.860Z,15.60
2018-09-16T11:35:42.118Z,15.50
2018-09-16T11:38:13.797Z,15.60
2018-09-16T11:40:43.151Z,15.70
2018-09-16T11:43:10.715Z,15.90
2018-09-16T11:45:38.262Z,16.10
2018-09-16T11:48:06.227Z,16.10
2018-09-16T11:50:33.953Z,15.60
2018-09-16T11:53:01.469Z,15.50
2018-09-16T11:55:28.993Z,15.30
2018-09-16T11:57:56.647Z,15.20
2018-09-16T12:00:25.003Z,15.20
2018-09-16T12:02:52.535Z,15.30
2018-09-16T12:05:21.110Z,15.50
2018-09-16T12:07:48.630Z,15.60
2018-09-16T12:10:16.072Z,15.70
2018-09-16T12:12:44.685Z,15.80
2018-09-16T12:15:12.213Z,16.00
2018-09-16T12:17:39.727Z,16.10
2018-09-16T12:20:08.719Z,16.20
2018-09-16T12:22:38.468Z,16.30
2018-09-16T12:25:13.946Z,16.30
2018-09-16T12:27:41.562Z,16.40
2018-09-16T12:34:01.858Z,16.50
2018-09-16T14:00:47.862Z,16.70
2018-09-16T14:03:18.702Z,16.60
2018-09-16T14:08:41.151Z,16.10
2018-09-16T14:17:38.301Z,16.40
2018-09-16T14:20:49.915Z,16.60
2018-09-16T14:39:46.271Z,16.40
2018-09-16T14:42:25.497Z,15.70
2018-09-16T14:49:20.726Z,15.40
2018-09-16T14:51:49.577Z,15.30
2018-09-16T14:54:21.729Z,14.70
2018-09-16T14:57:56.526Z,14.60
2018-09-16T15:00:31.969Z,14.40
2018-09-16T15:03:10.997Z,14.20
2018-09-16T15:05:40.400Z,14.10
2018-09-16T15:08:14.311Z,14.20
2018-09-16T15:24:45.915Z,14.60
2018-09-16T15:30:38.047Z,14.50
2018-09-16T15:33:08.165Z,14.20
2018-09-16T15:35:38.388Z,14.00
2018-09-16T15:38:08.542Z,13.70
2018-09-16T15:45:40.867Z,13.70
2018-09-16T15:48:11.758Z,13.60
2018-09-16T15:56:32.497Z,13.60
2018-09-16T16:12:52.392Z,13.60
2018-09-16T16:48:16.173Z,12.90
2018-09-16T16:50:43.622Z,12.90
2018-09-16T16:53:11.002Z,12.70
2018-09-16T16:55:38.408Z,12.60
2018-09-16T16:58:05.942Z,12.70
2018-09-16T17:00:33.369Z,12.70
2018-09-16T17:03:00.768Z,12.80
2018-09-16T17:05:28.206Z,12.70
2018-09-16T17:07:55.616Z,12.80
2018-09-16T17:10:23.153Z,12.70
2018-09-16T17:12:50.529Z,12.50
2018-09-16T17:15:17.990Z,12.60
2018-09-16T17:17:45.372Z,12.60
2018-09-16T17:20:12.765Z,12.70
2018-09-16T17:22:40.179Z,12.70
2018-09-16T17:25:07.617Z,12.50
2018-09-16T17:27:35.031Z,12.50
2018-09-16T17:30:02.455Z,12.50
2018-09-16T17:32:29.904Z,12.50
2018-09-16T17:34:57.329Z,12.50
2018-09-16T17:37:24.735Z,12.50
2018-09-16T17:39:52.132Z,12.60
2018-09-16T17:42:19.549Z,12.50
2018-09-16T17:44:46.919Z,12.40
2018-09-16T17:47:14.279Z,12.40
2018-09-16T17:49:41.766Z,12.50
2018-09-16T17:52:09.160Z,12.40
2018-09-16T17:54:36.565Z,12.40
2018-09-16T17:57:04.076Z,12.40
2018-09-16T17:59:32.021Z,12.20
2018-09-16T18:01:59.425Z,12.10
2018-09-16T18:04:26.860Z,12.10
2018-09-16T18:06:54.325Z,12.10
2018-09-16T18:09:21.744Z,12.20
2018-09-16T18:11:49.164Z,12.20
2018-09-16T18:14:16.540Z,12.20
2018-09-16T18:16:44.047Z,12.10
2018-09-16T18:19:11.428Z,12.10
2018-09-16T18:21:38.857Z,12.10
2018-09-16T18:24:06.285Z,12.10
2018-09-16T18:26:33.688Z,12.10
2018-09-16T18:29:01.062Z,12.00
2018-09-16T18:31:28.486Z,11.90
2018-09-16T18:33:55.878Z,11.90
2018-09-16T18:36:23.450Z,12.00
2018-09-16T18:38:50.788Z,12.00
2018-09-16T18:41:18.316Z,12.00
2018-09-16T18:43:45.708Z,12.00
2018-09-16T18:46:13.206Z,12.00
2018-09-16T18:48:40.623Z,12.00
2018-09-16T18:51:08.009Z,12.00
2018-09-16T18:53:35.433Z,12.10
2018-09-16T18:56:02.831Z,12.10
2018-09-16T18:58:30.232Z,12.20
2018-09-16T19:00:57.632Z,12.10
2018-09-16T19:03:25.071Z,12.10
2018-09-16T19:05:52.472Z,12.10
2018-09-16T19:08:19.888Z,12.10
2018-09-16T19:10:47.352Z,12.20
2018-09-16T19:13:14.779Z,12.20
2018-09-16T19:15:42.238Z,12.30
2018-09-16T19:18:09.655Z,12.30
2018-09-16T19:20:37.780Z,12.30
2018-09-16T19:23:05.293Z,12.30
2018-09-16T19:25:32.863Z,12.10
2018-09-16T19:28:00.283Z,12.10
2018-09-16T19:30:27.712Z,12.10
2018-09-16T19:32:55.157Z,12.00
2018-09-16T19:35:22.697Z,12.10
2018-09-16T19:37:50.123Z,12.10
2018-09-16T19:40:17.554Z,12.10
2018-09-16T19:42:45.004Z,12.00
2018-09-16T19:45:12.469Z,12.10
2018-09-16T19:47:39.865Z,12.10
2018-09-16T19:50:07.349Z,12.10
2018-09-16T19:52:34.756Z,12.10
2018-09-16T19:55:02.221Z,12.10
2018-09-16T19:57:29.705Z,12.20
2018-09-16T19:59:57.189Z,12.20
2018-09-16T20:02:24.722Z,12.30
2018-09-16T20:04:52.290Z,12.30
2018-09-16T20:07:19.785Z,12.30
2018-09-16T20:09:47.422Z,12.30
2018-09-16T20:12:14.842Z,12.20
2018-09-16T20:14:42.244Z,12.20
2018-09-16T20:17:09.687Z,12.10
2018-09-16T20:19:37.066Z,12.10
2018-09-16T20:22:06.826Z,12.10
2018-09-16T20:24:34.240Z,12.10
2018-09-16T20:27:01.705Z,12.10
2018-09-16T20:29:29.121Z,11.90
2018-09-16T20:31:56.564Z,11.90
2018-09-16T20:34:23.945Z,11.90
2018-09-16T20:36:51.393Z,11.80
2018-09-16T20:39:18.955Z,11.70
2018-09-16T20:41:46.369Z,11.60
2018-09-16T20:44:13.770Z,11.60
2018-09-16T20:46:41.217Z,11.60
2018-09-16T20:49:08.659Z,11.60
2018-09-16T20:51:36.065Z,11.60
2018-09-16T20:54:03.443Z,11.70
2018-09-16T20:56:30.872Z,11.80
2018-09-16T20:58:58.324Z,11.80
2018-09-16T21:01:26.414Z,11.80
2018-09-16T21:03:53.882Z,11.80
2018-09-16T21:06:21.344Z,11.80
2018-09-16T21:08:49.062Z,11.80
2018-09-16T21:11:17.680Z,11.90
2018-09-16T21:13:45.321Z,11.90
2018-09-16T21:16:12.746Z,11.90
2018-09-16T21:18:40.200Z,12.00
2018-09-16T21:21:07.601Z,12.00
2018-09-16T21:23:35.093Z,11.90
2018-09-16T21:26:02.543Z,12.00
2018-09-16T21:28:29.927Z,12.10
2018-09-16T21:30:57.377Z,12.10
2018-09-16T21:33:24.804Z,12.10
2018-09-16T21:35:52.213Z,12.00
2018-09-16T21:38:19.598Z,12.20
2018-09-16T21:40:47.011Z,12.10
2018-09-16T21:43:14.515Z,12.20
2018-09-16T21:45:41.985Z,12.20
2018-09-16T21:48:09.396Z,12.30
2018-09-16T21:50:36.812Z,12.30
2018-09-16T21:53:04.549Z,12.30
2018-09-16T21:55:31.982Z,12.30
2018-09-16T21:57:59.401Z,12.40
2018-09-16T22:00:26.844Z,12.40
2018-09-16T22:02:54.288Z,12.40
2018-09-16T22:05:21.917Z,12.40
2018-09-16T22:07:49.626Z,12.40
2018-09-16T22:10:17.113Z,12.40
2018-09-16T22:12:44.560Z,12.40
2018-09-16T22:15:11.995Z,12.40
2018-09-16T22:17:39.464Z,12.40
2018-09-16T22:20:07.105Z,12.40
2018-09-16T22:22:34.546Z,12.50
2018-09-16T22:25:01.992Z,12.50
2018-09-16T22:27:29.429Z,12.50
2018-09-16T22:29:56.833Z,12.60
2018-09-16T22:32:24.298Z,12.60
2018-09-16T22:34:51.735Z,12.60
2018-09-16T22:37:19.138Z,12.70
2018-09-16T22:39:46.608Z,12.70
2018-09-16T22:42:14.044Z,12.80
2018-09-16T22:44:41.516Z,12.80
2018-09-16T22:47:08.925Z,12.80
2018-09-16T22:49:36.324Z,12.80
2018-09-16T22:52:03.785Z,12.80
2018-09-16T22:54:31.213Z,12.80
2018-09-16T22:56:58.790Z,12.80
2018-09-16T22:59:26.219Z,12.80
2018-09-16T23:01:53.656Z,12.80
2018-09-16T23:04:21.066Z,12.80
2018-09-16T23:06:48.532Z,12.90
2018-09-16T23:09:15.966Z,12.90
2018-09-16T23:11:44.376Z,12.90
2018-09-16T23:14:11.821Z,12.90
2018-09-16T23:16:39.883Z,12.90
2018-09-16T23:19:07.316Z,12.90
2018-09-16T23:21:34.974Z,12.90
2018-09-16T23:24:02.486Z,12.90
2018-09-16T23:26:29.953Z,12.90
2018-09-16T23:28:57.501Z,12.90
2018-09-16T23:31:25.005Z,12.90
2018-09-16T23:33:52.428Z,12.90
2018-09-16T23:36:19.876Z,12.90
2018-09-16T23:38:47.321Z,12.90
2018-09-16T23:41:15.064Z,12.80
2018-09-16T23:43:42.577Z,12.80
2018-09-16T23:46:09.963Z,12.80
2018-09-16T23:48:37.352Z,12.90
2018-09-16T23:51:04.814Z,13.00
2018-09-16T23:53:32.282Z,13.00
2018-09-16T23:55:59.696Z,13.10
2018-09-16T23:58:27.180Z,13.00
